| time (UTC) | temp C | wind direction | speed KPH | gust KPH | rain 1hr cm | rain 24hr cm | rain mn cm | humidity % | barometer mb |
| 20260506180038 | 20 | 193 | 0.0 | 4.8 | 0.00 | 0.00 | 0.00 | 60 | 1019.8 |
| 20260506174529 | 20 | 27 | 0.0 | 4.8 | 0.00 | 0.00 | 0.00 | 64 | 1019.9 |
| 20260506173025 | 19 | 188 | 0.0 | 4.8 | 0.00 | 0.00 | 0.00 | 65 | 1020.0 |
| 20260506171525 | 18 | 283 | 0.0 | 4.8 | 0.00 | 0.00 | 0.00 | 65 | 1020.0 |
| 20260506170022 | 18 | 221 | 3.2 | 9.7 | 0.00 | 0.00 | 0.00 | 65 | 1020.0 |
| 20260506164518 | 17 | 224 | 0.0 | 6.4 | 0.00 | 0.00 | 0.00 | 68 | 1020.1 |
| 20260506163015 | 17 | 199 | 0.0 | 4.8 | 0.00 | 0.00 | 0.00 | 68 | 1020.2 |
| 20260506161514 | 17 | 259 | 0.0 | 3.2 | 0.00 | 0.00 | 0.00 | 68 | 1020.3 |
| 20260506160015 | 16 | 172 | 0.0 | 6.4 | 0.00 | 0.00 | 0.00 | 71 | 1020.3 |
| 20260506154509 | 16 | 224 | 3.2 | 6.4 | 0.00 | 0.00 | 0.00 | 71 | 1020.3 |
| 20260506153008 | 16 | 290 | 0.0 | 6.4 | 0.00 | 0.00 | 0.00 | 71 | 1020.4 |
| 20260506151507 | 16 | 209 | 0.0 | 4.8 | 0.00 | 0.00 | 0.00 | 74 | 1020.4 |
| 20260506144557 | 13 | 150 | 0.0 | 4.8 | 0.00 | 0.00 | 0.00 | 83 | 1020.4 |
| 20260506143053 | 12 | 212 | 0.0 | 1.6 | 0.00 | 0.00 | 0.00 | 87 | 1020.3 |
| 20260506141606 | 11 | 210 | 0.0 | 1.6 | 0.00 | 0.00 | 0.00 | 88 | 1020.1 |
| 20260506140047 | 11 | 222 | 0.0 | 0.0 | 0.00 | 0.00 | 0.00 | 89 | 1019.9 |
| 20260506134546 | 11 | 223 | 0.0 | 1.6 | 0.00 | 0.00 | 0.00 | 90 | 1019.8 |
| 20260506133045 | 11 | 223 | 0.0 | 0.0 | 0.00 | 0.00 | 0.00 | 89 | 1019.8 |
| 20260506131544 | 11 | 223 | 0.0 | 0.0 | 0.00 | 0.00 | 0.00 | 89 | 1019.7 |
| 20260506130042 | 11 | 223 | 0.0 | 0.0 | 0.00 | 0.00 | 0.00 | 88 | 1019.5 |
| 20260506124542 | 11 | 223 | 0.0 | 0.0 | 0.00 | 0.00 | 0.00 | 88 | 1019.4 |
| 20260506123043 | 11 | 223 | 0.0 | 0.0 | 0.00 | 0.00 | 0.00 | 88 | 1019.4 |
| 20260506121543 | 11 | 223 | 0.0 | 0.0 | 0.00 | 0.00 | 0.00 | 87 | 1019.3 |
| 20260506120104 | 11 | 223 | 0.0 | 0.0 | 0.00 | 0.00 | 0.00 | 88 | 1019.3 |
| 20260506114536 | 11 | 223 | 0.0 | 0.0 | 0.00 | 0.00 | 0.00 | 88 | 1019.3 |
| 20260506113032 | 11 | 223 | 0.0 | 0.0 | 0.00 | 0.00 | 0.00 | 88 | 1019.2 |
| 20260506111530 | 11 | 223 | 0.0 | 0.0 | 0.00 | 0.00 | 0.00 | 88 | 1019.0 |
| 20260506110028 | 11 | 223 | 0.0 | 0.0 | 0.00 | 0.00 | 0.00 | 88 | 1018.9 |
| 20260506104529 | 11 | 223 | 0.0 | 0.0 | 0.00 | 0.00 | 0.00 | 88 | 1018.8 |
| 20260506103030 | 11 | 223 | 0.0 | 0.0 | 0.00 | 0.00 | 0.00 | 88 | 1018.9 |
| 20260506101526 | 11 | 223 | 0.0 | 0.0 | 0.00 | 0.00 | 0.00 | 89 | 1018.7 |
| 20260506100024 | 11 | 223 | 0.0 | 0.0 | 0.00 | 0.00 | 0.00 | 89 | 1018.8 |
| 20260506094531 | 11 | 223 | 0.0 | 1.6 | 0.00 | 0.03 | 0.00 | 89 | 1018.7 |
| 20260506093029 | 11 | 223 | 0.0 | 1.6 | 0.00 | 0.03 | 0.00 | 90 | 1018.7 |
| 20260506091517 | 10 | 223 | 0.0 | 0.0 | 0.00 | 0.03 | 0.00 | 91 | 1018.7 |
| 20260506090015 | 10 | 223 | 0.0 | 0.0 | 0.00 | 0.03 | 0.00 | 92 | 1018.7 |
| 20260506084515 | 10 | 223 | 0.0 | 0.0 | 0.00 | 0.10 | 0.00 | 92 | 1018.7 |
| 20260506083014 | 10 | 223 | 0.0 | 0.0 | 0.00 | 0.10 | 0.00 | 92 | 1018.6 |
| 20260506081512 | 10 | 223 | 0.0 | 0.0 | 0.00 | 0.10 | 0.00 | 91 | 1018.7 |
| 20260506073006 | 10 | 223 | 0.0 | 0.0 | 0.00 | 0.20 | 0.00 | 89 | 1018.5 |
| 20260506071507 | 10 | 223 | 0.0 | 0.0 | 0.00 | 0.20 | 0.00 | 87 | 1018.4 |
| 20260506070117 | 11 | 223 | 0.0 | 0.0 | 0.00 | 0.20 | 0.00 | 87 | 1018.2 |
| 20260506061554 | 11 | 243 | 0.0 | 0.0 | 0.00 | 0.28 | 0.20 | 85 | 1017.8 |
| 20260506044554 | 12 | 206 | 1.6 | 6.4 | 0.00 | 0.38 | 0.20 | 81 | 1017.2 |
| 20260506043046 | 13 | 219 | 0.0 | 4.8 | 0.00 | 0.38 | 0.20 | 80 | 1017.0 |
| 20260506041550 | 13 | 297 | 0.0 | 6.4 | 0.00 | 0.38 | 0.20 | 78 | 1016.9 |
| 20260506040044 | 13 | 239 | 0.0 | 6.4 | 0.00 | 0.38 | 0.20 | 78 | 1016.7 |
| 20260506034539 | 13 | 290 | 1.6 | 8.0 | 0.00 | 0.38 | 0.20 | 77 | 1016.6 |
| 20260506033036 | 14 | 263 | 0.0 | 4.8 | 0.00 | 0.38 | 0.20 | 77 | 1016.3 |
| 20260506031544 | 14 | 195 | 1.6 | 8.0 | 0.00 | 0.38 | 0.20 | 76 | 1016.0 |
| 20260506030031 | 14 | 238 | 0.0 | 8.0 | 0.00 | 0.38 | 0.20 | 75 | 1015.8 |
| 20260506024534 | 15 | 307 | 0.0 | 9.7 | 0.00 | 0.38 | 0.20 | 74 | 1015.8 |
| 20260506023032 | 15 | 347 | 1.6 | 9.7 | 0.00 | 0.38 | 0.20 | 73 | 1015.7 |
| 20260506021530 | 15 | 201 | 0.0 | 9.7 | 0.00 | 0.38 | 0.20 | 73 | 1015.5 |
| 20260506020029 | 15 | 197 | 1.6 | 9.7 | 0.00 | 0.38 | 0.20 | 73 | 1015.3 |
| 20260506014530 | 15 | 245 | 3.2 | 14.5 | 0.00 | 0.38 | 0.20 | 72 | 1015.2 |
| 20260506013028 | 16 | 285 | 3.2 | 14.5 | 0.00 | 0.38 | 0.20 | 71 | 1015.1 |
| 20260506011528 | 16 | 188 | 3.2 | 12.9 | 0.00 | 0.38 | 0.20 | 70 | 1015.3 |
| 20260506010031 | 16 | 264 | 1.6 | 8.0 | 0.00 | 0.38 | 0.20 | 72 | 1015.2 |
| 20260506004536 | 16 | 295 | 1.6 | 11.3 | 0.00 | 0.38 | 0.20 | 71 | 1015.1 |
| 20260506003026 | 16 | 176 | 3.2 | 16.1 | 0.00 | 0.38 | 0.20 | 72 | 1015.0 |
| 20260506001525 | 16 | 142 | 6.4 | 12.9 | 0.00 | 0.38 | 0.20 | 71 | 1014.9 |
| 20260506000024 | 16 | 330 | 1.6 | 9.7 | 0.00 | 0.38 | 0.20 | 72 | 1014.9 |
| 20260505234559 | 16 | 290 | 1.6 | 9.7 | 0.00 | 0.38 | 0.20 | 72 | 1015.0 |
| 20260505233024 | 16 | 231 | 4.8 | 11.3 | 0.00 | 0.38 | 0.20 | 70 | 1014.9 |
| 20260505231523 | 16 | 247 | 1.6 | 8.0 | 0.00 | 0.38 | 0.20 | 71 | 1015.0 |
| 20260505230022 | 16 | 210 | 1.6 | 6.4 | 0.00 | 0.38 | 0.20 | 72 | 1015.0 |
| 20260505224528 | 16 | 167 | 1.6 | 11.3 | 0.00 | 0.38 | 0.20 | 72 | 1015.1 |
| 20260505223021 | 16 | 189 | 1.6 | 9.7 | 0.00 | 0.38 | 0.20 | 72 | 1015.0 |
| 20260505221520 | 16 | 165 | 0.0 | 9.7 | 0.00 | 0.38 | 0.20 | 72 | 1015.0 |
| 20260505220020 | 16 | 195 | 0.0 | 6.4 | 0.00 | 0.38 | 0.20 | 73 | 1015.1 |
| 20260505214619 | 16 | 159 | 3.2 | 9.7 | 0.00 | 0.38 | 0.20 | 73 | 1015.2 |
| 20260505213018 | 16 | 202 | 3.2 | 9.7 | 0.00 | 0.38 | 0.20 | 73 | 1015.3 |
| 20260505211518 | 17 | 204 | 0.0 | 3.2 | 0.00 | 0.38 | 0.20 | 73 | 1015.3 |
| 20260505210017 | 16 | 185 | 3.2 | 9.7 | 0.00 | 0.38 | 0.20 | 71 | 1015.3 |
| 20260505204523 | 16 | 240 | 0.0 | 8.0 | 0.00 | 0.38 | 0.20 | 73 | 1015.4 |
| 20260505203015 | 16 | 203 | 0.0 | 9.7 | 0.00 | 0.38 | 0.20 | 74 | 1015.5 |
| 20260505201512 | 15 | 283 | 1.6 | 6.4 | 0.00 | 0.38 | 0.20 | 75 | 1015.5 |
| 20260505200020 | 15 | 255 | 0.0 | 8.0 | 0.00 | 0.38 | 0.20 | 75 | 1015.7 |
| 20260505194511 | 16 | 302 | 0.0 | 12.9 | 0.00 | 0.38 | 0.20 | 74 | 1015.6 |
| 20260505193010 | 16 | 249 | 0.0 | 8.0 | 0.00 | 0.38 | 0.20 | 74 | 1015.6 |
| 20260505191506 | 15 | 226 | 0.0 | 6.4 | 0.00 | 0.38 | 0.20 | 76 | 1015.6 |
| 20260505190003 | 15 | 191 | 0.0 | 8.0 | 0.00 | 0.38 | 0.20 | 75 | 1015.7 |
| 20260505184601 | 15 | 250 | 0.0 | 4.8 | 0.00 | 0.38 | 0.20 | 78 | 1015.5 |
| 20260505183100 | 14 | 227 | 0.0 | 6.4 | 0.00 | 0.38 | 0.20 | 79 | 1015.5 |
| 20260505181559 | 15 | 318 | 0.0 | 6.4 | 0.00 | 0.38 | 0.20 | 78 | 1015.6 |